createdAt,value
2023-02-21T00:00:16.944Z,5.70
2023-02-21T00:03:23.433Z,5.70
2023-02-21T00:06:31.509Z,5.60
2023-02-21T00:09:37.964Z,5.70
2023-02-21T00:12:44.996Z,5.70
2023-02-21T00:15:52.340Z,5.70
2023-02-21T00:18:59.971Z,5.50
2023-02-21T00:22:07.971Z,5.70
2023-02-21T00:25:15.108Z,5.70
2023-02-21T00:28:22.251Z,5.70
2023-02-21T00:31:28.981Z,5.60
2023-02-21T00:34:35.825Z,5.60
2023-02-21T00:37:44.400Z,5.50
2023-02-21T00:40:51.490Z,5.60
2023-02-21T00:43:58.319Z,5.50
2023-02-21T00:47:04.741Z,5.60
2023-02-21T00:50:11.600Z,5.50
2023-02-21T00:53:19.501Z,5.50
2023-02-21T00:56:26.028Z,5.60
2023-02-21T00:59:32.294Z,5.60
2023-02-21T01:02:39.006Z,5.60
2023-02-21T01:05:45.900Z,5.70
2023-02-21T01:08:53.729Z,5.70
2023-02-21T01:12:00.474Z,5.10
2023-02-21T01:15:07.246Z,4.80
2023-02-21T01:18:13.674Z,4.60
2023-02-21T01:21:20.531Z,4.50
2023-02-21T01:24:32.033Z,4.40
2023-02-21T01:27:38.585Z,4.40
2023-02-21T01:30:45.553Z,4.30
2023-02-21T01:33:56.063Z,4.30
2023-02-21T01:37:02.744Z,4.20
2023-02-21T01:40:10.806Z,4.20
2023-02-21T01:43:17.834Z,4.20
2023-02-21T01:46:24.888Z,4.20
2023-02-21T01:49:35.684Z,4.20
2023-02-21T01:52:42.978Z,4.20
2023-02-21T01:55:52.360Z,4.20
2023-02-21T01:58:59.797Z,4.30
2023-02-21T02:02:12.400Z,4.40
2023-02-21T02:05:20.675Z,4.40
2023-02-21T02:08:27.389Z,4.20
2023-02-21T02:14:19.003Z,4.20
2023-02-21T02:17:16.691Z,4.20
2023-02-21T02:20:57.107Z,4.20
2023-02-21T02:24:13.661Z,4.10
2023-02-21T02:27:43.127Z,4.00
2023-02-21T02:31:03.038Z,4.10
2023-02-21T02:34:16.445Z,4.10
2023-02-21T02:37:14.772Z,4.00
2023-02-21T02:40:10.056Z,3.90
2023-02-21T02:43:21.957Z,3.80
2023-02-21T02:46:17.189Z,3.80
2023-02-21T02:49:11.494Z,3.70
2023-02-21T02:52:06.289Z,3.70
2023-02-21T02:55:06.990Z,3.60
2023-02-21T02:57:57.227Z,3.70
2023-02-21T03:00:54.844Z,3.70
2023-02-21T03:04:00.159Z,3.70
2023-02-21T03:06:58.548Z,3.80
2023-02-21T03:09:55.440Z,3.90
2023-02-21T03:12:54.271Z,4.00
2023-02-21T03:15:51.530Z,4.10
2023-02-21T03:18:44.812Z,4.10
2023-02-21T03:21:39.718Z,4.10
2023-02-21T03:24:30.692Z,4.20
2023-02-21T03:27:23.051Z,4.10
2023-02-21T03:30:16.094Z,4.10
2023-02-21T03:33:10.933Z,4.00
2023-02-21T03:36:02.112Z,4.00
2023-02-21T03:38:51.777Z,4.00
2023-02-21T03:41:41.489Z,3.90
2023-02-21T03:44:31.132Z,4.00
2023-02-21T03:47:22.350Z,4.00
2023-02-21T03:50:12.156Z,4.10
2023-02-21T03:53:03.279Z,4.10
2023-02-21T03:55:53.125Z,4.10
2023-02-21T03:58:42.730Z,4.10
2023-02-21T04:01:32.383Z,4.20
2023-02-21T04:04:23.498Z,4.20
2023-02-21T04:07:13.894Z,4.30
2023-02-21T04:10:03.432Z,4.20
2023-02-21T04:12:53.209Z,4.20
2023-02-21T04:15:42.851Z,4.10
2023-02-21T04:18:32.482Z,4.20
2023-02-21T04:21:23.584Z,4.20
2023-02-21T04:24:13.217Z,4.30
2023-02-21T04:27:03.210Z,4.20
2023-02-21T04:29:52.736Z,4.20
2023-02-21T04:32:42.632Z,4.30
2023-02-21T04:35:32.540Z,4.20
2023-02-21T04:38:23.653Z,4.20
2023-02-21T04:41:14.450Z,4.10
2023-02-21T04:44:04.317Z,4.20
2023-02-21T04:46:53.994Z,4.20
2023-02-21T04:49:43.894Z,4.20
2023-02-21T04:52:33.767Z,4.10
2023-02-21T04:55:25.099Z,4.20
2023-02-21T04:58:14.872Z,4.10
2023-02-21T05:01:04.624Z,4.10
2023-02-21T05:03:54.240Z,4.10
2023-02-21T05:06:44.109Z,4.10
2023-02-21T05:09:34.594Z,4.10
2023-02-21T05:12:25.681Z,4.10
2023-02-21T05:15:16.312Z,4.10
2023-02-21T05:18:05.828Z,4.10
2023-02-21T05:20:55.542Z,4.10
2023-02-21T05:23:56.271Z,4.20
2023-02-21T05:26:45.805Z,4.20
2023-02-21T05:29:36.538Z,4.20
2023-02-21T05:32:29.858Z,4.20
2023-02-21T05:35:19.302Z,4.20
2023-02-21T05:38:09.345Z,4.20
2023-02-21T05:40:58.825Z,4.20
2023-02-21T05:43:49.854Z,4.30
2023-02-21T05:46:40.758Z,4.20
2023-02-21T05:49:30.221Z,4.20
2023-02-21T05:52:19.871Z,4.20
2023-02-21T05:55:09.480Z,4.30
2023-02-21T05:57:58.777Z,4.20
2023-02-21T06:00:48.195Z,4.20
2023-02-21T06:03:39.183Z,4.10
2023-02-21T06:06:28.704Z,4.20
2023-02-21T06:09:19.796Z,4.20
2023-02-21T06:12:09.371Z,4.20
2023-02-21T06:14:59.410Z,4.20
2023-02-21T06:17:48.744Z,4.30
2023-02-21T06:20:39.650Z,4.30
2023-02-21T06:23:29.256Z,4.30
2023-02-21T06:26:19.907Z,4.30
2023-02-21T06:29:09.799Z,4.50
2023-02-21T06:31:59.817Z,4.50
2023-02-21T06:34:49.411Z,4.50
2023-02-21T06:37:40.306Z,4.40
2023-02-21T06:40:29.775Z,4.40
2023-02-21T06:43:19.157Z,4.40
2023-02-21T06:46:08.677Z,4.20
2023-02-21T06:48:58.156Z,4.30
2023-02-21T06:51:47.541Z,4.40
2023-02-21T06:54:38.877Z,4.40
2023-02-21T06:57:28.432Z,4.40
2023-02-21T07:00:19.054Z,4.30
2023-02-21T07:03:08.624Z,4.30
2023-02-21T07:05:58.073Z,4.50
2023-02-21T07:08:47.697Z,4.60
2023-02-21T07:11:38.627Z,4.60
2023-02-21T07:14:28.397Z,4.60
2023-02-21T07:17:17.853Z,4.60
2023-02-21T07:20:08.092Z,4.70
2023-02-21T07:22:57.754Z,4.70
2023-02-21T07:25:47.172Z,4.80
2023-02-21T07:28:38.491Z,5.10
2023-02-21T07:31:28.068Z,5.00
2023-02-21T07:34:17.782Z,5.00
2023-02-21T07:37:07.210Z,5.00
2023-02-21T07:39:57.025Z,5.20
2023-02-21T07:42:48.235Z,5.20
2023-02-21T07:45:39.512Z,5.30
2023-02-21T07:48:30.178Z,5.30
2023-02-21T07:51:19.913Z,5.30
2023-02-21T07:54:09.358Z,5.30
2023-02-21T07:56:59.055Z,5.40
2023-02-21T07:59:50.203Z,5.40
2023-02-21T08:02:41.078Z,5.30
2023-02-21T08:05:30.592Z,5.50
2023-02-21T08:08:20.092Z,5.40
2023-02-21T08:11:09.719Z,5.60
2023-02-21T08:13:59.176Z,5.80
2023-02-21T08:16:48.654Z,5.70
2023-02-21T08:19:39.724Z,5.70
2023-02-21T08:22:29.241Z,5.70
2023-02-21T08:25:18.914Z,5.50
2023-02-21T08:28:08.532Z,5.50
2023-02-21T08:30:58.282Z,5.50
2023-02-21T08:33:48.141Z,5.60
2023-02-21T08:36:41.516Z,5.70
2023-02-21T08:39:32.273Z,5.70
2023-02-21T08:42:22.469Z,5.70
2023-02-21T08:45:18.262Z,5.60
2023-02-21T08:48:08.052Z,5.50
2023-02-21T08:50:57.633Z,5.60
2023-02-21T08:53:48.654Z,5.70
2023-02-21T08:56:38.070Z,5.90
2023-02-21T08:59:29.126Z,6.00
2023-02-21T09:02:20.570Z,6.20
2023-02-21T09:05:11.402Z,6.50
2023-02-21T09:08:03.942Z,6.50
2023-02-21T09:10:56.320Z,6.50
2023-02-21T09:13:46.173Z,6.40
2023-02-21T09:16:35.566Z,6.50
2023-02-21T09:19:25.312Z,6.30
2023-02-21T09:22:14.825Z,6.60
2023-02-21T09:25:05.044Z,6.50
2023-02-21T09:27:55.961Z,6.60
2023-02-21T09:30:45.866Z,6.50
2023-02-21T09:33:35.368Z,6.80
2023-02-21T09:36:25.167Z,6.90
2023-02-21T09:39:15.362Z,7.20
2023-02-21T09:42:04.771Z,7.20
2023-02-21T09:44:55.832Z,6.90
2023-02-21T09:47:47.113Z,6.60
2023-02-21T09:50:44.195Z,6.50
2023-02-21T09:53:35.890Z,6.30
2023-02-21T09:56:31.372Z,6.50
2023-02-21T09:59:20.843Z,6.50
2023-02-21T10:02:40.849Z,6.20
2023-02-21T10:05:41.061Z,5.70
2023-02-21T10:08:41.611Z,5.40
2023-02-21T10:11:43.066Z,5.60
2023-02-21T10:14:45.269Z,5.80
2023-02-21T10:17:39.887Z,5.80
2023-02-21T10:20:39.816Z,5.90
2023-02-21T10:23:35.680Z,5.90
2023-02-21T10:26:29.673Z,5.90
2023-02-21T10:29:25.337Z,6.10
2023-02-21T10:32:15.709Z,6.20
2023-02-21T10:35:07.606Z,6.30
2023-02-21T10:38:00.576Z,6.70
2023-02-21T10:40:54.453Z,6.80
2023-02-21T10:43:48.871Z,6.80
2023-02-21T10:46:45.886Z,7.00
2023-02-21T10:49:42.559Z,6.80
2023-02-21T10:52:39.420Z,6.80
2023-02-21T10:55:33.138Z,6.90
2023-02-21T10:58:28.705Z,7.10
2023-02-21T11:01:22.317Z,7.20
2023-02-21T11:04:27.961Z,7.30
2023-02-21T11:07:17.587Z,7.40
2023-02-21T11:10:29.492Z,7.30
2023-02-21T11:13:23.232Z,7.10
2023-02-21T11:16:17.580Z,7.00
2023-02-21T11:19:09.183Z,6.90
2023-02-21T11:22:00.736Z,6.70
2023-02-21T11:25:00.473Z,6.60
2023-02-21T11:28:04.828Z,6.70
2023-02-21T11:31:08.965Z,6.70
2023-02-21T11:34:00.749Z,6.90
2023-02-21T11:36:51.194Z,6.90
2023-02-21T11:39:41.882Z,7.00
2023-02-21T11:42:34.634Z,6.90
2023-02-21T11:45:31.610Z,7.00
2023-02-21T11:48:30.192Z,6.90
2023-02-21T11:51:32.763Z,6.60
2023-02-21T11:54:26.033Z,6.70
2023-02-21T11:57:23.078Z,6.80
2023-02-21T12:00:23.699Z,6.70
2023-02-21T12:03:46.453Z,7.20
2023-02-21T12:06:44.040Z,7.70
2023-02-21T12:09:41.743Z,7.80
2023-02-21T12:12:40.930Z,7.70
2023-02-21T12:15:39.709Z,7.50
2023-02-21T12:18:48.763Z,7.40
2023-02-21T12:22:01.301Z,7.70
2023-02-21T12:25:02.980Z,8.00
2023-02-21T12:27:58.173Z,7.80
2023-02-21T12:31:05.771Z,7.00
2023-02-21T12:34:08.338Z,6.50
2023-02-21T12:37:15.654Z,6.10
2023-02-21T12:40:17.486Z,5.90
2023-02-21T12:43:45.747Z,5.70
2023-02-21T12:46:40.637Z,5.60
2023-02-21T12:49:37.989Z,5.50
2023-02-21T12:52:30.697Z,5.70
2023-02-21T12:55:23.891Z,5.80
2023-02-21T12:58:21.692Z,6.00
2023-02-21T13:01:20.803Z,6.20
2023-02-21T13:04:29.944Z,6.30
2023-02-21T13:07:26.809Z,6.00
2023-02-21T13:10:22.007Z,5.90
2023-02-21T13:13:16.766Z,5.90
2023-02-21T13:16:11.004Z,6.10
2023-02-21T13:19:04.842Z,6.60
2023-02-21T13:22:11.642Z,6.50
2023-02-21T13:25:12.404Z,6.60
2023-02-21T13:28:07.897Z,6.70
2023-02-21T13:31:03.174Z,6.70
2023-02-21T13:33:54.795Z,6.90
2023-02-21T13:36:46.814Z,6.90
2023-02-21T13:39:38.302Z,7.00
2023-02-21T13:42:31.802Z,6.90
2023-02-21T13:45:24.494Z,6.90
2023-02-21T13:48:23.308Z,6.90
2023-02-21T13:51:48.803Z,6.90
2023-02-21T13:54:58.282Z,6.70
2023-02-21T13:57:51.396Z,6.80
2023-02-21T14:00:56.559Z,6.80
2023-02-21T14:03:46.787Z,6.70
2023-02-21T14:06:38.506Z,6.70
2023-02-21T14:09:28.639Z,6.80
2023-02-21T14:12:18.643Z,6.70
2023-02-21T14:15:10.988Z,6.70
2023-02-21T14:18:02.855Z,6.70
2023-02-21T14:20:55.813Z,6.70
2023-02-21T14:23:51.167Z,6.60
2023-02-21T14:26:44.544Z,6.70
2023-02-21T14:29:37.330Z,6.60
2023-02-21T14:32:36.874Z,6.70
2023-02-21T14:35:33.586Z,6.50
2023-02-21T14:38:25.707Z,6.50
2023-02-21T14:41:39.405Z,6.50
2023-02-21T14:44:36.355Z,6.40
2023-02-21T14:47:50.455Z,6.30
2023-02-21T14:50:52.014Z,6.30
2023-02-21T14:54:08.497Z,6.30
2023-02-21T14:57:12.262Z,6.20
2023-02-21T15:00:15.542Z,6.20
2023-02-21T15:03:14.349Z,6.20
2023-02-21T15:06:08.413Z,6.10
2023-02-21T15:08:58.027Z,6.10
2023-02-21T15:11:49.169Z,6.10
2023-02-21T15:14:42.320Z,6.10
2023-02-21T15:17:32.097Z,6.10
2023-02-21T15:20:23.377Z,6.10
2023-02-21T15:23:19.549Z,6.10
2023-02-21T15:26:22.528Z,6.20
2023-02-21T15:29:14.798Z,6.10
2023-02-21T15:32:05.270Z,6.00
2023-02-21T15:34:56.079Z,5.90
2023-02-21T15:37:48.749Z,5.80
2023-02-21T15:40:38.828Z,5.80
2023-02-21T15:43:35.450Z,5.70
2023-02-21T15:46:26.934Z,5.60
2023-02-21T15:49:21.856Z,5.50
2023-02-21T15:52:29.600Z,5.50
2023-02-21T15:55:31.935Z,5.40
2023-02-21T15:58:24.814Z,5.40
2023-02-21T16:01:14.692Z,5.40
2023-02-21T16:04:20.747Z,5.40
2023-02-21T16:07:19.861Z,5.40
2023-02-21T16:10:13.195Z,5.30
2023-02-21T16:13:04.703Z,5.40
2023-02-21T16:16:00.945Z,5.40
2023-02-21T16:18:59.255Z,5.40
2023-02-21T16:21:50.228Z,5.40
2023-02-21T16:24:42.196Z,5.40
2023-02-21T16:27:32.601Z,5.40
2023-02-21T16:30:26.517Z,5.30
2023-02-21T16:33:16.348Z,5.40
2023-02-21T16:36:10.225Z,5.30
2023-02-21T16:39:01.993Z,5.40
2023-02-21T16:41:53.660Z,5.40
2023-02-21T16:44:46.478Z,5.20
2023-02-21T16:47:37.712Z,5.10
2023-02-21T16:50:31.884Z,5.00
2023-02-21T16:53:24.118Z,4.90
2023-02-21T16:56:16.380Z,4.90
2023-02-21T16:59:08.116Z,4.80
2023-02-21T17:01:58.030Z,4.80
2023-02-21T17:04:50.201Z,4.80
2023-02-21T17:07:40.336Z,4.80
2023-02-21T17:15:28.395Z,4.60
2023-02-21T17:18:21.322Z,4.40
2023-02-21T17:21:16.185Z,4.30
2023-02-21T17:24:06.540Z,4.20
2023-02-21T17:26:57.447Z,4.10
2023-02-21T17:30:24.567Z,4.00
2023-02-21T17:33:15.877Z,3.90
2023-02-21T17:36:07.282Z,3.90
2023-02-21T17:39:00.010Z,3.90
2023-02-21T17:41:53.383Z,3.90
2023-02-21T17:44:48.193Z,4.00
2023-02-21T17:47:39.730Z,4.10
2023-02-21T17:50:30.536Z,4.10
2023-02-21T17:53:23.414Z,4.10
2023-02-21T17:56:25.129Z,4.00
2023-02-21T17:59:18.243Z,4.00
2023-02-21T18:02:10.966Z,3.90
2023-02-21T18:05:04.561Z,3.90
2023-02-21T18:07:57.564Z,3.90
2023-02-21T18:10:48.566Z,4.00
2023-02-21T18:13:41.151Z,4.00
2023-02-21T18:16:32.500Z,4.00
2023-02-21T18:19:38.639Z,4.00
2023-02-21T18:22:30.185Z,3.90
2023-02-21T18:25:25.043Z,3.80
2023-02-21T18:28:16.470Z,3.70
2023-02-21T18:31:11.147Z,3.50
2023-02-21T18:34:03.171Z,3.50
2023-02-21T18:36:58.434Z,3.40
2023-02-21T18:39:53.686Z,3.30
2023-02-21T18:42:49.260Z,3.10
2023-02-21T18:45:41.767Z,3.00
2023-02-21T18:48:34.678Z,2.80
2023-02-21T18:51:27.424Z,2.70
2023-02-21T18:54:21.629Z,2.60
2023-02-21T18:57:17.982Z,2.50
2023-02-21T19:00:17.279Z,2.50
2023-02-21T19:03:14.634Z,2.50
2023-02-21T19:06:22.514Z,2.50
2023-02-21T19:09:14.556Z,2.50
2023-02-21T19:12:18.462Z,2.50
2023-02-21T19:15:14.691Z,2.60
2023-02-21T19:18:13.985Z,2.70
2023-02-21T19:21:14.586Z,2.70
2023-02-21T19:24:13.078Z,2.70
2023-02-21T19:27:16.035Z,2.60
2023-02-21T19:30:10.648Z,2.60
2023-02-21T19:33:05.932Z,2.60
2023-02-21T19:36:17.335Z,2.70
2023-02-21T19:39:22.468Z,2.60
2023-02-21T19:42:19.038Z,2.40
2023-02-21T19:45:15.837Z,2.30
2023-02-21T19:48:08.460Z,2.10
2023-02-21T19:50:59.999Z,2.00
2023-02-21T19:53:50.836Z,1.90
2023-02-21T19:56:46.509Z,1.70
2023-02-21T19:59:38.814Z,1.60
2023-02-21T20:02:32.961Z,1.60
2023-02-21T20:05:25.250Z,1.50
2023-02-21T20:08:19.747Z,1.50
2023-02-21T20:11:12.066Z,1.40
2023-02-21T20:14:06.977Z,1.40
2023-02-21T20:16:58.527Z,1.40
2023-02-21T20:19:54.019Z,1.40
2023-02-21T20:22:45.369Z,1.30
2023-02-21T20:25:37.115Z,1.40
2023-02-21T20:28:34.261Z,1.50
2023-02-21T20:31:32.444Z,1.60
2023-02-21T20:34:25.486Z,1.70
2023-02-21T20:37:20.517Z,1.80
2023-02-21T20:40:13.476Z,1.90
2023-02-21T20:43:05.902Z,1.90
2023-02-21T20:45:57.207Z,2.00
2023-02-21T20:48:50.385Z,2.00
2023-02-21T20:51:42.248Z,2.00
2023-02-21T20:54:34.118Z,2.10
2023-02-21T20:57:26.615Z,2.00
2023-02-21T21:00:24.450Z,2.00
2023-02-21T21:03:17.045Z,2.00
2023-02-21T21:06:13.434Z,2.10
2023-02-21T21:09:05.213Z,2.30
2023-02-21T21:12:01.408Z,2.30
2023-02-21T21:14:55.113Z,2.40
2023-02-21T21:17:51.654Z,2.50
2023-02-21T21:20:43.135Z,2.60
2023-02-21T21:23:35.900Z,2.60
2023-02-21T21:26:28.509Z,2.70
2023-02-21T21:29:20.862Z,2.80
2023-02-21T21:32:12.297Z,2.80
2023-02-21T21:35:08.261Z,2.80
2023-02-21T21:37:59.875Z,2.90
2023-02-21T21:40:53.721Z,2.90
2023-02-21T21:43:46.311Z,2.80
2023-02-21T21:46:38.330Z,2.90
2023-02-21T21:49:31.094Z,2.90
2023-02-21T21:52:22.984Z,2.80
2023-02-21T21:55:23.992Z,2.80
2023-02-21T21:58:25.676Z,2.70
2023-02-21T22:01:22.430Z,2.70
2023-02-21T22:04:14.087Z,2.70
2023-02-21T22:07:04.021Z,2.70
2023-02-21T22:09:53.928Z,2.70
2023-02-21T22:12:46.446Z,2.70
2023-02-21T22:15:38.076Z,2.80
2023-02-21T22:18:28.020Z,2.70
2023-02-21T22:21:22.739Z,2.80
2023-02-21T22:24:15.832Z,2.80
2023-02-21T22:27:06.577Z,2.80
2023-02-21T22:29:58.964Z,2.70
2023-02-21T22:32:50.793Z,2.70
2023-02-21T22:35:40.928Z,2.80
2023-02-21T22:38:30.282Z,2.70
2023-02-21T22:41:21.932Z,2.70
2023-02-21T22:44:13.269Z,2.70
2023-02-21T22:47:03.417Z,2.70
2023-02-21T22:49:54.355Z,2.60
2023-02-21T22:52:43.858Z,2.60
2023-02-21T22:55:36.412Z,2.60
2023-02-21T22:58:26.052Z,2.60
2023-02-21T23:01:17.864Z,2.50
2023-02-21T23:04:16.604Z,2.60
2023-02-21T23:07:07.894Z,2.50
2023-02-21T23:09:58.562Z,2.60
2023-02-21T23:12:48.824Z,2.50
2023-02-21T23:15:38.628Z,2.50
2023-02-21T23:18:29.982Z,2.50
2023-02-21T23:21:23.613Z,2.50
2023-02-21T23:24:16.088Z,2.50
2023-02-21T23:27:09.230Z,2.50
2023-02-21T23:30:00.778Z,2.50
2023-02-21T23:32:50.807Z,2.50
2023-02-21T23:35:41.901Z,2.50
2023-02-21T23:38:31.547Z,2.60
2023-02-21T23:41:22.651Z,2.50
2023-02-21T23:44:14.357Z,2.50
2023-02-21T23:47:06.724Z,2.60
2023-02-21T23:49:58.772Z,2.50
2023-02-21T23:52:49.877Z,2.50
2023-02-21T23:55:41.030Z,2.50
2023-02-21T23:58:33.818Z,2.50
